59M weather

Torchport Airport
Eastport, Michigan, United States

Public forecast

Using degrees Fahrenheit for public forecast. Weather courtesy of forecast.io.

METAR (pilot weather report)

Closest report is Antrim County Airport, 7.8 nm (14.5 km) ESE. Retrieved 2019/06/25 09:35 UTC (0 seconds ago):

KACB 250935Z AUTO 23004KT 10SM OVC008 17/16 A2963 RMK AO2 T01700155

TAF (pilot weather forecast)

Closest forecast is Cherry Capital Airport, 21.2 nm (39.2 km) SSW. Retrieved 2019/06/25 06:22 UTC (3 hours ago):

TAF KTVC 250520Z 2506/2606 22012KT 6SM -SHRA BR OVC040 FM251000 25009KT P6SM VCSH OVC060 FM251100 25011G19KT P6SM BKN060 FM252300 23013KT P6SM VCSH SCT050